sensor_id;sensor_type;location;lat;lon;timestamp;temperature;humidity
25328;DHT22;13279;51.300;12.394;2023-04-24T00:00:20;13.30;99.90
25328;DHT22;13279;51.300;12.394;2023-04-24T00:02:47;13.10;99.90
25328;DHT22;13279;51.300;12.394;2023-04-24T00:05:18;13.10;99.90
25328;DHT22;13279;51.300;12.394;2023-04-24T00:07:46;13.00;99.90
25328;DHT22;13279;51.300;12.394;2023-04-24T00:10:13;12.90;99.90
25328;DHT22;13279;51.300;12.394;2023-04-24T00:12:41;12.90;99.90
25328;DHT22;13279;51.300;12.394;2023-04-24T00:15:09;12.90;99.90
25328;DHT22;13279;51.300;12.394;2023-04-24T00:17:37;12.80;99.90
25328;DHT22;13279;51.300;12.394;2023-04-24T00:20:05;12.80;99.90
25328;DHT22;13279;51.300;12.394;2023-04-24T00:22:34;12.80;99.90
25328;DHT22;13279;51.300;12.394;2023-04-24T00:25:01;12.80;99.90
25328;DHT22;13279;51.300;12.394;2023-04-24T00:27:29;12.80;99.90
25328;DHT22;13279;51.300;12.394;2023-04-24T00:29:56;12.80;99.90
25328;DHT22;13279;51.300;12.394;2023-04-24T00:32:24;12.80;99.90
25328;DHT22;13279;51.300;12.394;2023-04-24T00:34:51;12.70;99.90
25328;DHT22;13279;51.300;12.394;2023-04-24T00:37:19;12.80;99.90
25328;DHT22;13279;51.300;12.394;2023-04-24T00:39:47;12.80;99.90
25328;DHT22;13279;51.300;12.394;2023-04-24T00:42:15;12.80;99.90
25328;DHT22;13279;51.300;12.394;2023-04-24T00:44:42;12.70;99.90
25328;DHT22;13279;51.300;12.394;2023-04-24T00:47:11;12.70;99.90
25328;DHT22;13279;51.300;12.394;2023-04-24T00:49:39;12.70;99.90
25328;DHT22;13279;51.300;12.394;2023-04-24T00:52:06;12.70;99.90
25328;DHT22;13279;51.300;12.394;2023-04-24T00:54:34;12.70;99.90
25328;DHT22;13279;51.300;12.394;2023-04-24T00:57:04;12.70;99.90
25328;DHT22;13279;51.300;12.394;2023-04-24T00:59:32;12.60;99.90
25328;DHT22;13279;51.300;12.394;2023-04-24T01:01:59;12.60;99.90
25328;DHT22;13279;51.300;12.394;2023-04-24T01:04:27;12.60;99.90
25328;DHT22;13279;51.300;12.394;2023-04-24T01:06:55;12.60;99.90
25328;DHT22;13279;51.300;12.394;2023-04-24T01:09:23;12.50;99.90
25328;DHT22;13279;51.300;12.394;2023-04-24T01:11:51;12.60;99.90
25328;DHT22;13279;51.300;12.394;2023-04-24T01:14:20;12.50;99.90
25328;DHT22;13279;51.300;12.394;2023-04-24T01:16:49;12.50;99.90
25328;DHT22;13279;51.300;12.394;2023-04-24T01:19:17;12.50;99.90
25328;DHT22;13279;51.300;12.394;2023-04-24T01:21:47;12.50;99.90
25328;DHT22;13279;51.300;12.394;2023-04-24T01:24:19;12.40;99.90
25328;DHT22;13279;51.300;12.394;2023-04-24T01:26:46;12.40;99.90
25328;DHT22;13279;51.300;12.394;2023-04-24T01:29:14;12.40;99.90
25328;DHT22;13279;51.300;12.394;2023-04-24T01:31:42;12.40;99.90
25328;DHT22;13279;51.300;12.394;2023-04-24T01:34:10;12.40;99.90
25328;DHT22;13279;51.300;12.394;2023-04-24T01:36:38;12.30;99.90
25328;DHT22;13279;51.300;12.394;2023-04-24T01:39:06;12.30;99.90
25328;DHT22;13279;51.300;12.394;2023-04-24T01:41:34;12.40;99.90
25328;DHT22;13279;51.300;12.394;2023-04-24T01:44:02;12.40;99.90
25328;DHT22;13279;51.300;12.394;2023-04-24T01:46:29;12.40;99.90
25328;DHT22;13279;51.300;12.394;2023-04-24T01:48:59;12.40;99.90
25328;DHT22;13279;51.300;12.394;2023-04-24T01:51:27;12.30;99.90
25328;DHT22;13279;51.300;12.394;2023-04-24T01:53:56;12.30;99.90
25328;DHT22;13279;51.300;12.394;2023-04-24T01:56:24;12.30;99.90
25328;DHT22;13279;51.300;12.394;2023-04-24T01:58:54;12.40;99.90
25328;DHT22;13279;51.300;12.394;2023-04-24T02:01:24;12.30;99.90
25328;DHT22;13279;51.300;12.394;2023-04-24T02:03:51;12.30;99.90
25328;DHT22;13279;51.300;12.394;2023-04-24T02:06:19;12.30;99.90
25328;DHT22;13279;51.300;12.394;2023-04-24T02:08:46;12.30;99.90
25328;DHT22;13279;51.300;12.394;2023-04-24T02:11:14;12.20;99.90
25328;DHT22;13279;51.300;12.394;2023-04-24T02:13:41;12.20;99.90
25328;DHT22;13279;51.300;12.394;2023-04-24T02:16:10;12.20;99.90
25328;DHT22;13279;51.300;12.394;2023-04-24T02:18:38;12.20;99.90
25328;DHT22;13279;51.300;12.394;2023-04-24T02:21:05;12.20;99.90
25328;DHT22;13279;51.300;12.394;2023-04-24T02:23:32;12.20;99.90
25328;DHT22;13279;51.300;12.394;2023-04-24T02:26:00;12.20;99.90
25328;DHT22;13279;51.300;12.394;2023-04-24T02:28:27;12.20;99.90
25328;DHT22;13279;51.300;12.394;2023-04-24T02:30:55;12.10;99.90
25328;DHT22;13279;51.300;12.394;2023-04-24T02:33:24;12.10;99.90
25328;DHT22;13279;51.300;12.394;2023-04-24T02:35:51;12.10;99.90
25328;DHT22;13279;51.300;12.394;2023-04-24T02:38:19;12.10;99.90
25328;DHT22;13279;51.300;12.394;2023-04-24T02:40:46;12.10;99.90
25328;DHT22;13279;51.300;12.394;2023-04-24T02:43:14;12.00;99.90
25328;DHT22;13279;51.300;12.394;2023-04-24T02:45:41;12.00;99.90
25328;DHT22;13279;51.300;12.394;2023-04-24T02:48:08;12.00;99.90
25328;DHT22;13279;51.300;12.394;2023-04-24T02:50:37;12.00;99.90
25328;DHT22;13279;51.300;12.394;2023-04-24T02:53:05;11.90;99.90
25328;DHT22;13279;51.300;12.394;2023-04-24T02:55:32;11.90;99.90
25328;DHT22;13279;51.300;12.394;2023-04-24T02:57:59;11.90;99.90
25328;DHT22;13279;51.300;12.394;2023-04-24T03:00:26;11.80;99.90
25328;DHT22;13279;51.300;12.394;2023-04-24T03:02:54;11.80;99.90
25328;DHT22;13279;51.300;12.394;2023-04-24T03:05:21;11.80;99.90
25328;DHT22;13279;51.300;12.394;2023-04-24T03:07:50;11.80;99.90
25328;DHT22;13279;51.300;12.394;2023-04-24T03:10:20;11.80;99.90
25328;DHT22;13279;51.300;12.394;2023-04-24T03:12:49;11.70;99.90
25328;DHT22;13279;51.300;12.394;2023-04-24T03:15:18;11.70;99.90
25328;DHT22;13279;51.300;12.394;2023-04-24T03:17:45;11.70;99.90
25328;DHT22;13279;51.300;12.394;2023-04-24T03:20:13;11.70;99.90
25328;DHT22;13279;51.300;12.394;2023-04-24T03:22:42;11.70;99.90
25328;DHT22;13279;51.300;12.394;2023-04-24T03:25:11;11.70;99.90
25328;DHT22;13279;51.300;12.394;2023-04-24T03:27:38;11.70;99.90
25328;DHT22;13279;51.300;12.394;2023-04-24T03:30:33;11.70;99.90
25328;DHT22;13279;51.300;12.394;2023-04-24T03:33:03;11.70;99.90
25328;DHT22;13279;51.300;12.394;2023-04-24T03:35:35;11.70;99.90
25328;DHT22;13279;51.300;12.394;2023-04-24T03:38:08;11.70;99.90
25328;DHT22;13279;51.300;12.394;2023-04-24T03:40:43;11.70;99.90
25328;DHT22;13279;51.300;12.394;2023-04-24T03:43:28;11.70;99.90
25328;DHT22;13279;51.300;12.394;2023-04-24T03:45:58;11.60;99.90
25328;DHT22;13279;51.300;12.394;2023-04-24T03:48:27;11.70;99.90
25328;DHT22;13279;51.300;12.394;2023-04-24T03:50:57;11.70;99.90
25328;DHT22;13279;51.300;12.394;2023-04-24T03:53:25;11.70;99.90
25328;DHT22;13279;51.300;12.394;2023-04-24T03:55:54;11.70;99.90
25328;DHT22;13279;51.300;12.394;2023-04-24T03:58:23;11.70;99.90
25328;DHT22;13279;51.300;12.394;2023-04-24T04:00:53;11.70;99.90
25328;DHT22;13279;51.300;12.394;2023-04-24T04:03:48;11.70;99.90
25328;DHT22;13279;51.300;12.394;2023-04-24T04:06:19;11.70;99.90
25328;DHT22;13279;51.300;12.394;2023-04-24T04:08:49;11.60;99.90
25328;DHT22;13279;51.300;12.394;2023-04-24T04:11:18;11.60;99.90
25328;DHT22;13279;51.300;12.394;2023-04-24T04:13:46;11.60;99.90
25328;DHT22;13279;51.300;12.394;2023-04-24T04:16:16;11.70;99.90
25328;DHT22;13279;51.300;12.394;2023-04-24T04:18:45;11.60;99.90
25328;DHT22;13279;51.300;12.394;2023-04-24T04:21:12;11.60;99.90
25328;DHT22;13279;51.300;12.394;2023-04-24T04:23:40;11.60;99.90
25328;DHT22;13279;51.300;12.394;2023-04-24T04:26:21;11.60;99.90
25328;DHT22;13279;51.300;12.394;2023-04-24T04:29:02;11.60;99.90
25328;DHT22;13279;51.300;12.394;2023-04-24T04:31:30;11.60;99.90
25328;DHT22;13279;51.300;12.394;2023-04-24T04:34:01;11.60;99.90
25328;DHT22;13279;51.300;12.394;2023-04-24T04:36:32;11.60;99.90
25328;DHT22;13279;51.300;12.394;2023-04-24T04:39:16;11.70;99.90
25328;DHT22;13279;51.300;12.394;2023-04-24T04:41:54;11.70;99.90
25328;DHT22;13279;51.300;12.394;2023-04-24T04:44:26;11.70;99.90
25328;DHT22;13279;51.300;12.394;2023-04-24T04:46:58;11.70;99.90
25328;DHT22;13279;51.300;12.394;2023-04-24T04:49:32;11.70;99.90
25328;DHT22;13279;51.300;12.394;2023-04-24T04:52:01;11.70;99.90
25328;DHT22;13279;51.300;12.394;2023-04-24T04:54:28;11.70;99.90
25328;DHT22;13279;51.300;12.394;2023-04-24T04:56:58;11.70;99.90
25328;DHT22;13279;51.300;12.394;2023-04-24T04:59:27;11.70;99.90
25328;DHT22;13279;51.300;12.394;2023-04-24T05:02:01;11.70;99.90
25328;DHT22;13279;51.300;12.394;2023-04-24T05:04:30;11.80;99.90
25328;DHT22;13279;51.300;12.394;2023-04-24T05:06:58;11.80;99.90
25328;DHT22;13279;51.300;12.394;2023-04-24T05:09:28;11.80;99.90
25328;DHT22;13279;51.300;12.394;2023-04-24T05:12:02;11.80;99.90
25328;DHT22;13279;51.300;12.394;2023-04-24T05:14:35;11.80;99.90
25328;DHT22;13279;51.300;12.394;2023-04-24T05:17:03;11.80;99.90
25328;DHT22;13279;51.300;12.394;2023-04-24T05:19:31;11.90;99.90
25328;DHT22;13279;51.300;12.394;2023-04-24T05:22:02;11.80;99.90
25328;DHT22;13279;51.300;12.394;2023-04-24T05:24:37;11.90;99.90
25328;DHT22;13279;51.300;12.394;2023-04-24T05:27:33;11.90;99.90
25328;DHT22;13279;51.300;12.394;2023-04-24T05:30:05;12.00;99.90
25328;DHT22;13279;51.300;12.394;2023-04-24T05:32:34;12.10;99.90
25328;DHT22;13279;51.300;12.394;2023-04-24T05:35:01;12.10;99.90
25328;DHT22;13279;51.300;12.394;2023-04-24T05:37:29;12.20;99.90
25328;DHT22;13279;51.300;12.394;2023-04-24T05:39:56;12.20;99.90
25328;DHT22;13279;51.300;12.394;2023-04-24T05:42:24;12.30;99.90
25328;DHT22;13279;51.300;12.394;2023-04-24T05:44:53;12.40;99.90
25328;DHT22;13279;51.300;12.394;2023-04-24T05:47:21;12.40;99.90
25328;DHT22;13279;51.300;12.394;2023-04-24T05:49:49;12.50;99.90
25328;DHT22;13279;51.300;12.394;2023-04-24T05:52:17;12.60;99.90
25328;DHT22;13279;51.300;12.394;2023-04-24T05:54:45;12.70;99.90
25328;DHT22;13279;51.300;12.394;2023-04-24T05:57:19;12.70;79.10
25328;DHT22;13279;51.300;12.394;2023-04-24T05:59:58;12.70;58.40
25328;DHT22;13279;51.300;12.394;2023-04-24T06:02:26;12.80;36.70
25328;DHT22;13279;51.300;12.394;2023-04-24T06:04:59;12.90;58.90
25328;DHT22;13279;51.300;12.394;2023-04-24T06:07:26;12.90;31.80
25328;DHT22;13279;51.300;12.394;2023-04-24T06:09:55;13.00;32.20
25328;DHT22;13279;51.300;12.394;2023-04-24T06:12:22;13.00;20.20
25328;DHT22;13279;51.300;12.394;2023-04-24T06:14:57;13.00;16.90
25328;DHT22;13279;51.300;12.394;2023-04-24T06:17:35;13.10;13.80
25328;DHT22;13279;51.300;12.394;2023-04-24T06:20:03;13.10;14.40
25328;DHT22;13279;51.300;12.394;2023-04-24T06:22:32;13.10;9.60
25328;DHT22;13279;51.300;12.394;2023-04-24T06:24:59;13.10;1.00
25328;DHT22;13279;51.300;12.394;2023-04-24T06:27:27;13.10;1.00
25328;DHT22;13279;51.300;12.394;2023-04-24T06:29:55;13.00;17.80
25328;DHT22;13279;51.300;12.394;2023-04-24T06:32:24;13.10;1.00
25328;DHT22;13279;51.300;12.394;2023-04-24T06:34:52;13.10;1.00
25328;DHT22;13279;51.300;12.394;2023-04-24T06:37:20;13.10;1.00
25328;DHT22;13279;51.300;12.394;2023-04-24T06:39:47;13.10;1.00
25328;DHT22;13279;51.300;12.394;2023-04-24T06:42:15;13.00;1.00
25328;DHT22;13279;51.300;12.394;2023-04-24T06:44:43;13.00;1.00
25328;DHT22;13279;51.300;12.394;2023-04-24T06:47:11;13.00;1.00
25328;DHT22;13279;51.300;12.394;2023-04-24T06:49:41;12.90;1.00
25328;DHT22;13279;51.300;12.394;2023-04-24T06:52:09;13.00;1.00
25328;DHT22;13279;51.300;12.394;2023-04-24T06:54:36;13.00;1.00
25328;DHT22;13279;51.300;12.394;2023-04-24T06:57:04;13.00;1.00
25328;DHT22;13279;51.300;12.394;2023-04-24T06:59:31;13.00;1.00
25328;DHT22;13279;51.300;12.394;2023-04-24T07:01:59;13.00;1.00
25328;DHT22;13279;51.300;12.394;2023-04-24T07:04:26;13.00;1.00
25328;DHT22;13279;51.300;12.394;2023-04-24T07:06:55;13.00;1.00
25328;DHT22;13279;51.300;12.394;2023-04-24T07:09:25;13.10;1.00
25328;DHT22;13279;51.300;12.394;2023-04-24T07:11:53;13.10;1.00
25328;DHT22;13279;51.300;12.394;2023-04-24T07:14:22;13.20;1.00
25328;DHT22;13279;51.300;12.394;2023-04-24T07:16:50;13.20;1.00
25328;DHT22;13279;51.300;12.394;2023-04-24T07:19:17;13.30;1.00
25328;DHT22;13279;51.300;12.394;2023-04-24T07:21:45;13.30;1.00
25328;DHT22;13279;51.300;12.394;2023-04-24T07:24:13;13.50;1.00
25328;DHT22;13279;51.300;12.394;2023-04-24T07:26:41;13.60;1.00
25328;DHT22;13279;51.300;12.394;2023-04-24T07:29:09;13.80;1.00
25328;DHT22;13279;51.300;12.394;2023-04-24T07:31:36;14.00;1.00
25328;DHT22;13279;51.300;12.394;2023-04-24T07:34:04;14.10;1.00
25328;DHT22;13279;51.300;12.394;2023-04-24T07:36:31;14.10;1.00
25328;DHT22;13279;51.300;12.394;2023-04-24T07:38:59;14.20;1.00
25328;DHT22;13279;51.300;12.394;2023-04-24T07:41:28;14.30;1.00
25328;DHT22;13279;51.300;12.394;2023-04-24T07:43:55;14.40;1.00
25328;DHT22;13279;51.300;12.394;2023-04-24T07:46:23;14.30;1.00
25328;DHT22;13279;51.300;12.394;2023-04-24T07:48:50;14.20;1.00
25328;DHT22;13279;51.300;12.394;2023-04-24T07:51:19;14.10;1.00
25328;DHT22;13279;51.300;12.394;2023-04-24T07:53:46;13.90;1.00
25328;DHT22;13279;51.300;12.394;2023-04-24T07:56:13;13.90;1.00
25328;DHT22;13279;51.300;12.394;2023-04-24T07:58:42;14.00;1.00
25328;DHT22;13279;51.300;12.394;2023-04-24T08:01:09;14.20;1.00
25328;DHT22;13279;51.300;12.394;2023-04-24T08:03:37;14.40;1.00
25328;DHT22;13279;51.300;12.394;2023-04-24T08:06:05;14.50;1.00
25328;DHT22;13279;51.300;12.394;2023-04-24T08:08:33;14.70;1.00
25328;DHT22;13279;51.300;12.394;2023-04-24T08:11:01;15.00;1.00
25328;DHT22;13279;51.300;12.394;2023-04-24T08:13:28;14.80;1.00
25328;DHT22;13279;51.300;12.394;2023-04-24T08:15:57;14.70;1.00
25328;DHT22;13279;51.300;12.394;2023-04-24T08:18:25;14.90;1.00
25328;DHT22;13279;51.300;12.394;2023-04-24T08:20:53;14.90;1.00
25328;DHT22;13279;51.300;12.394;2023-04-24T08:23:20;15.10;1.00
25328;DHT22;13279;51.300;12.394;2023-04-24T08:25:48;15.40;1.00
25328;DHT22;13279;51.300;12.394;2023-04-24T08:28:16;15.50;1.00
25328;DHT22;13279;51.300;12.394;2023-04-24T08:30:46;15.70;1.00
25328;DHT22;13279;51.300;12.394;2023-04-24T08:33:15;15.80;1.00
25328;DHT22;13279;51.300;12.394;2023-04-24T08:35:43;15.70;1.00
25328;DHT22;13279;51.300;12.394;2023-04-24T08:38:10;15.80;1.00
25328;DHT22;13279;51.300;12.394;2023-04-24T08:40:38;15.80;1.00
25328;DHT22;13279;51.300;12.394;2023-04-24T08:43:06;15.70;1.00
25328;DHT22;13279;51.300;12.394;2023-04-24T08:45:34;15.60;1.00
25328;DHT22;13279;51.300;12.394;2023-04-24T08:48:02;15.60;99.90
25328;DHT22;13279;51.300;12.394;2023-04-24T08:50:34;15.50;99.90
25328;DHT22;13279;51.300;12.394;2023-04-24T08:53:02;15.50;99.90
25328;DHT22;13279;51.300;12.394;2023-04-24T08:55:30;15.60;99.90
25328;DHT22;13279;51.300;12.394;2023-04-24T08:58:01;15.50;99.90
25328;DHT22;13279;51.300;12.394;2023-04-24T09:00:30;15.60;99.90
25328;DHT22;13279;51.300;12.394;2023-04-24T09:02:57;15.50;99.90
25328;DHT22;13279;51.300;12.394;2023-04-24T09:05:25;15.70;99.90
25328;DHT22;13279;51.300;12.394;2023-04-24T09:07:56;15.80;99.90
25328;DHT22;13279;51.300;12.394;2023-04-24T09:10:24;15.90;47.60
25328;DHT22;13279;51.300;12.394;2023-04-24T09:12:52;16.00;1.00
25328;DHT22;13279;51.300;12.394;2023-04-24T09:15:21;16.00;1.00
25328;DHT22;13279;51.300;12.394;2023-04-24T09:17:48;15.70;1.00
25328;DHT22;13279;51.300;12.394;2023-04-24T09:20:16;15.50;21.10
25328;DHT22;13279;51.300;12.394;2023-04-24T09:22:45;15.80;96.30
25328;DHT22;13279;51.300;12.394;2023-04-24T09:25:14;15.90;99.90
25328;DHT22;13279;51.300;12.394;2023-04-24T09:27:43;15.80;99.90
25328;DHT22;13279;51.300;12.394;2023-04-24T09:30:11;15.80;99.90
25328;DHT22;13279;51.300;12.394;2023-04-24T09:32:39;15.60;99.90
25328;DHT22;13279;51.300;12.394;2023-04-24T09:35:10;15.40;99.90
25328;DHT22;13279;51.300;12.394;2023-04-24T09:37:40;15.20;99.90
25328;DHT22;13279;51.300;12.394;2023-04-24T09:42:40;14.80;99.90
25328;DHT22;13279;51.300;12.394;2023-04-24T09:45:11;14.50;1.00
25328;DHT22;13279;51.300;12.394;2023-04-24T09:47:39;14.50;1.00
25328;DHT22;13279;51.300;12.394;2023-04-24T09:50:13;14.60;1.00
25328;DHT22;13279;51.300;12.394;2023-04-24T09:52:46;14.60;1.00
25328;DHT22;13279;51.300;12.394;2023-04-24T09:55:19;14.70;1.00
25328;DHT22;13279;51.300;12.394;2023-04-24T09:57:52;15.00;1.00
25328;DHT22;13279;51.300;12.394;2023-04-24T10:00:22;15.30;1.00
25328;DHT22;13279;51.300;12.394;2023-04-24T10:02:57;15.30;99.90
25328;DHT22;13279;51.300;12.394;2023-04-24T10:05:28;15.30;99.90
25328;DHT22;13279;51.300;12.394;2023-04-24T10:07:57;15.20;99.90
25328;DHT22;13279;51.300;12.394;2023-04-24T10:10:26;15.40;99.90
25328;DHT22;13279;51.300;12.394;2023-04-24T10:12:55;15.80;99.70
25328;DHT22;13279;51.300;12.394;2023-04-24T10:15:22;16.00;1.00
25328;DHT22;13279;51.300;12.394;2023-04-24T10:17:52;16.00;1.00
25328;DHT22;13279;51.300;12.394;2023-04-24T10:20:20;16.00;1.00
25328;DHT22;13279;51.300;12.394;2023-04-24T10:23:10;15.80;1.00
25328;DHT22;13279;51.300;12.394;2023-04-24T10:25:45;15.50;1.00
25328;DHT22;13279;51.300;12.394;2023-04-24T10:28:19;15.20;1.00
25328;DHT22;13279;51.300;12.394;2023-04-24T10:30:47;15.50;99.90
25328;DHT22;13279;51.300;12.394;2023-04-24T10:33:18;15.80;1.00
25328;DHT22;13279;51.300;12.394;2023-04-24T10:35:48;16.10;99.90
25328;DHT22;13279;51.300;12.394;2023-04-24T10:38:22;16.20;1.00
25328;DHT22;13279;51.300;12.394;2023-04-24T10:40:57;16.00;1.00
25328;DHT22;13279;51.300;12.394;2023-04-24T10:43:36;16.20;1.00
25328;DHT22;13279;51.300;12.394;2023-04-24T10:46:06;16.50;1.00
25328;DHT22;13279;51.300;12.394;2023-04-24T10:48:34;16.50;99.90
25328;DHT22;13279;51.300;12.394;2023-04-24T10:51:02;16.30;45.00
25328;DHT22;13279;51.300;12.394;2023-04-24T10:53:30;16.40;1.00
25328;DHT22;13279;51.300;12.394;2023-04-24T10:55:59;16.30;1.00
25328;DHT22;13279;51.300;12.394;2023-04-24T10:58:41;16.30;1.00
25328;DHT22;13279;51.300;12.394;2023-04-24T11:01:23;15.80;1.00
25328;DHT22;13279;51.300;12.394;2023-04-24T11:03:55;15.80;1.00
25328;DHT22;13279;51.300;12.394;2023-04-24T11:06:29;16.00;1.00
25328;DHT22;13279;51.300;12.394;2023-04-24T11:09:02;16.40;1.00
25328;DHT22;13279;51.300;12.394;2023-04-24T11:11:32;17.00;99.90
25328;DHT22;13279;51.300;12.394;2023-04-24T11:14:07;17.40;1.00
25328;DHT22;13279;51.300;12.394;2023-04-24T11:16:43;17.70;1.00
25328;DHT22;13279;51.300;12.394;2023-04-24T11:19:20;17.80;1.00
25328;DHT22;13279;51.300;12.394;2023-04-24T11:21:57;17.90;1.00
25328;DHT22;13279;51.300;12.394;2023-04-24T11:24:31;17.20;1.00
25328;DHT22;13279;51.300;12.394;2023-04-24T11:27:00;16.60;61.30
25328;DHT22;13279;51.300;12.394;2023-04-24T11:29:41;16.70;70.80
25328;DHT22;13279;51.300;12.394;2023-04-24T11:32:18;16.80;1.00
25328;DHT22;13279;51.300;12.394;2023-04-24T11:34:47;17.00;1.00
25328;DHT22;13279;51.300;12.394;2023-04-24T11:37:15;17.40;1.00
25328;DHT22;13279;51.300;12.394;2023-04-24T11:39:43;17.40;1.00
25328;DHT22;13279;51.300;12.394;2023-04-24T11:42:10;17.20;1.00
25328;DHT22;13279;51.300;12.394;2023-04-24T11:44:39;17.00;99.90
25328;DHT22;13279;51.300;12.394;2023-04-24T11:47:09;16.90;99.90
25328;DHT22;13279;51.300;12.394;2023-04-24T11:49:36;16.70;99.90
25328;DHT22;13279;51.300;12.394;2023-04-24T11:52:04;16.30;99.90
25328;DHT22;13279;51.300;12.394;2023-04-24T11:54:34;16.20;99.90
25328;DHT22;13279;51.300;12.394;2023-04-24T11:57:56;16.20;99.90
25328;DHT22;13279;51.300;12.394;2023-04-24T12:00:41;16.20;99.90
25328;DHT22;13279;51.300;12.394;2023-04-24T12:03:09;16.70;1.00
25328;DHT22;13279;51.300;12.394;2023-04-24T12:05:38;17.40;1.00
25328;DHT22;13279;51.300;12.394;2023-04-24T12:08:05;17.60;99.90
25328;DHT22;13279;51.300;12.394;2023-04-24T12:10:34;17.60;99.90
25328;DHT22;13279;51.300;12.394;2023-04-24T12:13:01;17.80;99.90
25328;DHT22;13279;51.300;12.394;2023-04-24T12:15:29;17.60;37.20
25328;DHT22;13279;51.300;12.394;2023-04-24T12:18:00;17.10;1.00
25328;DHT22;13279;51.300;12.394;2023-04-24T12:20:30;17.00;1.00
25328;DHT22;13279;51.300;12.394;2023-04-24T12:23:00;16.70;1.00
25328;DHT22;13279;51.300;12.394;2023-04-24T12:25:31;16.70;99.90
25328;DHT22;13279;51.300;12.394;2023-04-24T12:28:10;16.80;99.90
25328;DHT22;13279;51.300;12.394;2023-04-24T12:30:41;16.50;99.90
25328;DHT22;13279;51.300;12.394;2023-04-24T12:33:11;16.50;99.90
25328;DHT22;13279;51.300;12.394;2023-04-24T12:35:40;16.70;99.90
25328;DHT22;13279;51.300;12.394;2023-04-24T12:38:09;16.60;99.90
25328;DHT22;13279;51.300;12.394;2023-04-24T12:40:38;16.50;99.90
25328;DHT22;13279;51.300;12.394;2023-04-24T12:43:14;16.60;99.90
25328;DHT22;13279;51.300;12.394;2023-04-24T12:45:42;16.80;99.90
25328;DHT22;13279;51.300;12.394;2023-04-24T12:48:12;17.00;60.50
25328;DHT22;13279;51.300;12.394;2023-04-24T12:50:40;16.70;6.80
25328;DHT22;13279;51.300;12.394;2023-04-24T12:53:08;16.80;1.00
25328;DHT22;13279;51.300;12.394;2023-04-24T12:55:37;16.50;1.00
25328;DHT22;13279;51.300;12.394;2023-04-24T12:58:04;16.20;1.00
25328;DHT22;13279;51.300;12.394;2023-04-24T13:00:34;16.20;1.00
25328;DHT22;13279;51.300;12.394;2023-04-24T13:03:03;16.30;1.00
25328;DHT22;13279;51.300;12.394;2023-04-24T13:05:32;16.40;1.00
25328;DHT22;13279;51.300;12.394;2023-04-24T13:07:59;16.10;1.00
25328;DHT22;13279;51.300;12.394;2023-04-24T13:10:29;16.00;1.00
25328;DHT22;13279;51.300;12.394;2023-04-24T13:13:09;16.00;1.00
25328;DHT22;13279;51.300;12.394;2023-04-24T13:15:37;16.40;1.00
25328;DHT22;13279;51.300;12.394;2023-04-24T13:18:12;16.60;1.00
25328;DHT22;13279;51.300;12.394;2023-04-24T13:20:43;16.90;1.00
25328;DHT22;13279;51.300;12.394;2023-04-24T13:23:21;17.30;1.00
25328;DHT22;13279;51.300;12.394;2023-04-24T13:25:55;17.70;1.00
25328;DHT22;13279;51.300;12.394;2023-04-24T13:28:41;17.70;1.00
25328;DHT22;13279;51.300;12.394;2023-04-24T13:31:11;17.50;1.00
25328;DHT22;13279;51.300;12.394;2023-04-24T13:33:45;17.60;1.00
25328;DHT22;13279;51.300;12.394;2023-04-24T13:36:29;17.50;1.00
25328;DHT22;13279;51.300;12.394;2023-04-24T13:39:05;17.40;1.00
25328;DHT22;13279;51.300;12.394;2023-04-24T13:41:33;17.40;1.00
25328;DHT22;13279;51.300;12.394;2023-04-24T13:44:02;17.20;1.00
25328;DHT22;13279;51.300;12.394;2023-04-24T13:46:30;17.00;1.00
25328;DHT22;13279;51.300;12.394;2023-04-24T13:48:58;16.80;1.00
25328;DHT22;13279;51.300;12.394;2023-04-24T13:51:28;16.40;1.00
25328;DHT22;13279;51.300;12.394;2023-04-24T13:53:56;16.30;1.00
25328;DHT22;13279;51.300;12.394;2023-04-24T13:56:24;16.30;1.00
25328;DHT22;13279;51.300;12.394;2023-04-24T13:58:51;16.00;1.00
25328;DHT22;13279;51.300;12.394;2023-04-24T14:01:22;15.80;1.00
25328;DHT22;13279;51.300;12.394;2023-04-24T14:03:51;15.70;1.00
25328;DHT22;13279;51.300;12.394;2023-04-24T14:06:19;15.60;1.00
25328;DHT22;13279;51.300;12.394;2023-04-24T14:08:48;15.60;1.00
25328;DHT22;13279;51.300;12.394;2023-04-24T14:11:16;15.60;1.00
25328;DHT22;13279;51.300;12.394;2023-04-24T14:13:44;15.90;1.00
25328;DHT22;13279;51.300;12.394;2023-04-24T14:16:12;16.30;1.00
25328;DHT22;13279;51.300;12.394;2023-04-24T14:18:40;16.80;1.00
25328;DHT22;13279;51.300;12.394;2023-04-24T14:21:07;16.70;1.00
25328;DHT22;13279;51.300;12.394;2023-04-24T14:23:35;16.40;1.00
25328;DHT22;13279;51.300;12.394;2023-04-24T14:26:06;16.10;1.00
25328;DHT22;13279;51.300;12.394;2023-04-24T14:28:34;15.70;1.00
25328;DHT22;13279;51.300;12.394;2023-04-24T14:31:01;15.70;1.00
25328;DHT22;13279;51.300;12.394;2023-04-24T14:33:30;15.70;1.00
25328;DHT22;13279;51.300;12.394;2023-04-24T14:35:57;15.70;1.00
25328;DHT22;13279;51.300;12.394;2023-04-24T14:38:24;15.60;1.00
25328;DHT22;13279;51.300;12.394;2023-04-24T14:40:51;15.60;42.40
25328;DHT22;13279;51.300;12.394;2023-04-24T14:43:22;15.40;55.80
25328;DHT22;13279;51.300;12.394;2023-04-24T14:45:50;15.20;99.90
25328;DHT22;13279;51.300;12.394;2023-04-24T14:48:17;15.00;99.90
25328;DHT22;13279;51.300;12.394;2023-04-24T14:50:45;15.10;1.00
25328;DHT22;13279;51.300;12.394;2023-04-24T14:53:12;14.90;1.00
25328;DHT22;13279;51.300;12.394;2023-04-24T14:55:39;14.80;1.00
25328;DHT22;13279;51.300;12.394;2023-04-24T14:58:07;14.80;1.00
25328;DHT22;13279;51.300;12.394;2023-04-24T15:00:36;14.80;99.90
25328;DHT22;13279;51.300;12.394;2023-04-24T15:03:04;14.60;1.00
25328;DHT22;13279;51.300;12.394;2023-04-24T15:05:37;14.50;1.00
25328;DHT22;13279;51.300;12.394;2023-04-24T15:15:11;14.00;1.00
25328;DHT22;13279;51.300;12.394;2023-04-24T15:17:40;14.10;1.00
25328;DHT22;13279;51.300;12.394;2023-04-24T15:20:11;14.30;1.00
25328;DHT22;13279;51.300;12.394;2023-04-24T15:22:45;14.10;1.00
25328;DHT22;13279;51.300;12.394;2023-04-24T15:28:16;14.30;1.00
25328;DHT22;13279;51.300;12.394;2023-04-24T15:31:03;14.80;1.00
25328;DHT22;13279;51.300;12.394;2023-04-24T15:33:56;14.90;99.90
25328;DHT22;13279;51.300;12.394;2023-04-24T15:36:30;14.80;1.00
25328;DHT22;13279;51.300;12.394;2023-04-24T15:39:01;15.50;99.90
25328;DHT22;13279;51.300;12.394;2023-04-24T15:41:36;15.90;94.60
25328;DHT22;13279;51.300;12.394;2023-04-24T15:44:25;16.20;1.00
25328;DHT22;13279;51.300;12.394;2023-04-24T15:46:52;16.20;1.00
25328;DHT22;13279;51.300;12.394;2023-04-24T15:49:22;15.50;1.00
25328;DHT22;13279;51.300;12.394;2023-04-24T15:51:51;14.50;99.90